Time;durP1;ratioP1;P1;durP2;ratioP2;P2;SDS_P1;SDS_P2;PMS_P1;PMS_P2;Temp;Humidity;BMP_temperature;BMP_pressure;BME280_temperature;BME280_humidity;BME280_pressure;Samples;Min_cycle;Max_cycle;Signal;HPM_P1;HPM_P2
2021/05/01 00:00:28;;;;;;;34.45;30.55;;;9.90;99.90;;;;;;5114250;28;20494;-74
2021/05/01 00:02:54;;;;;;;41.00;33.15;;;9.30;99.90;;;;;;5114061;28;20085;-74
2021/05/01 00:05:19;;;;;;;37.17;30.00;;;9.30;99.90;;;;;;5113860;28;20467;-74
2021/05/01 00:07:45;;;;;;;37.95;32.63;;;9.30;99.90;;;;;;5113763;28;20467;-73
2021/05/01 00:10:11;;;;;;;39.92;33.53;;;9.40;99.90;;;;;;5113798;28;20111;-74
2021/05/01 00:12:40;;;;;;;41.35;33.47;;;9.30;99.90;;;;;;5094072;28;20028;-74
2021/05/01 00:15:07;;;;;;;42.67;33.35;;;9.30;99.90;;;;;;5092381;28;20059;-73
2021/05/01 00:17:33;;;;;;;41.22;34.10;;;9.30;99.90;;;;;;5093030;28;20173;-74
2021/05/01 00:19:59;;;;;;;41.58;34.25;;;9.30;99.90;;;;;;5081689;28;20024;-73
2021/05/01 00:22:25;;;;;;;40.20;33.38;;;9.30;99.90;;;;;;5112883;28;20046;-74
2021/05/01 00:24:51;;;;;;;39.58;34.30;;;9.30;99.90;;;;;;5093506;28;20138;-73
2021/05/01 00:27:17;;;;;;;41.70;34.65;;;9.30;99.90;;;;;;5113721;28;20031;-73
2021/05/01 00:29:43;;;;;;;40.47;34.88;;;9.20;99.90;;;;;;5093628;28;20032;-73
2021/05/01 00:32:08;;;;;;;40.60;34.42;;;9.30;99.90;;;;;;5113306;28;20047;-73
2021/05/01 00:34:34;;;;;;;41.10;36.20;;;9.20;99.90;;;;;;5113373;28;20035;-73
2021/05/01 00:37:02;;;;;;;39.63;33.50;;;9.30;99.90;;;;;;5113301;28;20044;-74
2021/05/01 00:39:34;;;;;;;38.63;34.08;;;9.20;99.90;;;;;;5095944;28;20058;-74
2021/05/01 00:41:59;;;;;;;38.15;33.47;;;9.20;99.90;;;;;;5094000;28;20051;-74
2021/05/01 00:44:25;;;;;;;38.30;34.05;;;9.20;99.90;;;;;;5095229;28;20023;-74
2021/05/01 00:46:51;;;;;;;44.97;35.70;;;9.20;99.90;;;;;;5110805;27;20031;-74
2021/05/01 00:49:17;;;;;;;39.45;34.17;;;9.30;99.90;;;;;;5112731;28;20472;-74
2021/05/01 00:51:43;;;;;;;38.40;32.95;;;9.50;99.90;;;;;;5099351;28;20035;-74
2021/05/01 00:54:09;;;;;;;41.17;34.92;;;9.50;99.90;;;;;;5094423;28;20042;-74
2021/05/01 00:56:35;;;;;;;40.45;34.30;;;9.30;99.90;;;;;;5112752;28;20069;-74
2021/05/01 00:59:01;;;;;;;42.28;34.00;;;9.30;99.90;;;;;;5094414;28;20126;-74
2021/05/01 01:01:27;;;;;;;38.47;32.97;;;9.30;99.90;;;;;;5095231;28;20124;-74
2021/05/01 01:03:53;;;;;;;37.72;33.05;;;9.30;99.90;;;;;;5090671;28;20035;-74
2021/05/01 01:06:19;;;;;;;39.70;33.17;;;9.30;99.90;;;;;;5078193;28;20470;-74
2021/05/01 01:08:45;;;;;;;37.50;31.90;;;9.50;99.90;;;;;;5086921;28;20035;-74
2021/05/01 01:11:13;;;;;;;36.95;31.10;;;9.30;99.90;;;;;;5113049;28;20040;-74
2021/05/01 01:13:39;;;;;;;35.78;29.95;;;9.30;99.90;;;;;;5094828;28;20035;-73
2021/05/01 01:16:05;;;;;;;36.22;31.42;;;9.70;99.90;;;;;;5095606;28;20475;-74
2021/05/01 01:18:32;;;;;;;36.17;29.90;;;9.30;99.90;;;;;;5112508;28;20650;-74
2021/05/01 01:21:00;;;;;;;35.67;30.33;;;9.30;99.90;;;;;;5111598;28;20390;-73
2021/05/01 01:23:27;;;;;;;34.67;28.98;;;9.30;99.90;;;;;;5112453;28;20111;-73
2021/05/01 01:25:53;;;;;;;34.88;29.08;;;9.30;99.90;;;;;;5112291;28;20032;-73
2021/05/01 01:28:22;;;;;;;32.85;28.42;;;9.30;99.90;;;;;;5094561;28;20090;-73
2021/05/01 01:30:48;;;;;;;31.67;26.65;;;9.20;99.90;;;;;;5093984;28;20043;-73
2021/05/01 01:33:14;;;;;;;30.17;25.10;;;9.20;99.90;;;;;;5094292;28;20055;-73
2021/05/01 01:35:40;;;;;;;31.30;26.77;;;9.20;99.90;;;;;;5112584;28;20092;-73
2021/05/01 01:38:07;;;;;;;28.63;24.35;;;9.20;99.90;;;;;;5092865;28;20044;-73
2021/05/01 01:40:38;;;;;;;29.50;25.00;;;9.70;99.90;;;;;;5108412;28;20066;-74
2021/05/01 01:43:05;;;;;;;27.00;23.98;;;9.60;99.90;;;;;;5094454;28;20439;-73
2021/05/01 01:45:31;;;;;;;26.17;23.25;;;9.20;99.90;;;;;;5112243;28;20035;-73
2021/05/01 01:47:58;;;;;;;29.50;24.00;;;9.20;99.90;;;;;;5096532;28;20048;-73
2021/05/01 01:50:25;;;;;;;29.27;26.15;;;9.20;99.90;;;;;;5112281;28;20097;-73
2021/05/01 01:52:52;;;;;;;31.35;26.42;;;9.20;99.90;;;;;;5111986;28;20045;-73
2021/05/01 01:55:20;;;;;;;30.50;25.95;;;9.30;99.90;;;;;;5087860;28;20040;-73
2021/05/01 01:57:47;;;;;;;30.85;25.83;;;9.10;99.90;;;;;;5112095;28;20051;-73
2021/05/01 02:00:17;;;;;;;30.55;25.90;;;9.10;99.90;;;;;;5112162;28;20390;-74
2021/05/01 02:02:44;;;;;;;29.25;25.33;;;9.10;99.90;;;;;;5112595;28;20059;-74
2021/05/01 02:05:11;;;;;;;29.08;25.38;;;9.10;99.90;;;;;;5111761;28;20035;-75
2021/05/01 02:07:37;;;;;;;28.48;24.92;;;9.10;99.90;;;;;;5096079;28;20040;-74
2021/05/01 02:10:08;;;;;;;29.52;25.17;;;9.10;99.90;;;;;;5110337;28;20156;-75
2021/05/01 02:12:38;;;;;;;30.17;26.23;;;9.10;99.90;;;;;;5090506;28;20035;-75
2021/05/01 02:15:15;;;;;;;31.27;26.13;;;9.10;99.90;;;;;;5115422;28;20042;-74
2021/05/01 02:17:43;;;;;;;32.03;26.00;;;9.00;99.90;;;;;;5116532;28;20519;-74
2021/05/01 02:20:13;;;;;;;30.10;26.05;;;9.00;99.90;;;;;;5116165;28;20035;-75
2021/05/01 02:22:38;;;;;;;30.90;26.77;;;9.00;99.90;;;;;;5116105;28;20133;-74
2021/05/01 02:25:10;;;;;;;28.58;25.20;;;9.50;99.90;;;;;;5097704;28;20043;-74
2021/05/01 02:27:36;;;;;;;30.08;26.42;;;9.10;99.90;;;;;;5112163;28;20029;-75
2021/05/01 02:30:08;;;;;;;29.23;25.90;;;9.00;99.90;;;;;;5115487;28;20051;-74
2021/05/01 02:32:34;;;;;;;28.98;25.73;;;9.00;99.90;;;;;;5097830;28;20027;-74
2021/05/01 02:35:00;;;;;;;29.60;26.40;;;9.00;99.90;;;;;;5097812;28;20132;-75
2021/05/01 02:37:26;;;;;;;30.05;25.58;;;9.00;99.90;;;;;;5113258;28;20436;-74
2021/05/01 02:39:52;;;;;;;29.70;26.25;;;9.10;99.90;;;;;;5115449;28;20039;-74
2021/05/01 02:42:18;;;;;;;29.08;25.38;;;9.00;99.90;;;;;;5101730;28;20102;-74
2021/05/01 02:44:44;;;;;;;33.72;27.05;;;9.20;99.90;;;;;;5111549;28;20138;-74
2021/05/01 02:47:10;;;;;;;31.02;27.20;;;9.10;99.90;;;;;;5115839;28;20039;-74
2021/05/01 02:49:36;;;;;;;32.20;27.60;;;8.90;99.90;;;;;;5115345;28;20032;-74
2021/05/01 02:52:02;;;;;;;31.40;25.83;;;8.90;99.90;;;;;;5097465;28;20063;-74
2021/05/01 02:54:28;;;;;;;31.45;27.83;;;8.90;99.90;;;;;;5096993;28;20082;-74
2021/05/01 02:56:54;;;;;;;33.75;28.20;;;9.00;99.90;;;;;;5115153;28;20043;-74
2021/05/01 02:59:20;;;;;;;33.10;28.33;;;8.90;99.90;;;;;;5096898;28;20089;-75
2021/05/01 03:01:48;;;;;;;29.85;26.35;;;9.10;99.90;;;;;;5113343;28;20039;-75
2021/05/01 03:04:14;;;;;;;34.35;27.60;;;8.80;99.90;;;;;;5114632;28;20035;-75
2021/05/01 03:06:39;;;;;;;33.10;27.10;;;8.80;99.90;;;;;;5113765;28;20442;-75
2021/05/01 03:09:06;;;;;;;30.95;26.23;;;8.80;99.90;;;;;;5102007;28;20488;-75
2021/05/01 03:11:32;;;;;;;29.35;26.08;;;8.80;99.90;;;;;;5080943;28;20048;-75
2021/05/01 03:13:58;;;;;;;31.50;25.88;;;8.80;99.90;;;;;;5114896;28;20047;-75
2021/05/01 03:16:23;;;;;;;34.10;27.20;;;8.80;99.90;;;;;;5114825;28;20084;-75
2021/05/01 03:18:49;;;;;;;29.77;26.08;;;8.80;99.90;;;;;;5111870;28;20085;-75
2021/05/01 03:21:15;;;;;;;29.80;25.77;;;8.80;99.90;;;;;;5096272;28;20566;-75
2021/05/01 03:23:41;;;;;;;29.70;25.70;;;8.90;99.90;;;;;;5108225;28;20114;-75
2021/05/01 03:26:08;;;;;;;36.22;26.55;;;8.80;99.90;;;;;;5114615;28;20040;-74
2021/05/01 03:28:33;;;;;;;29.73;26.02;;;8.70;99.90;;;;;;5111868;28;20031;-73
2021/05/01 03:30:59;;;;;;;30.75;25.35;;;8.70;99.90;;;;;;5112452;28;20028;-74
2021/05/01 03:33:27;;;;;;;27.98;24.90;;;8.70;99.90;;;;;;5096613;28;20482;-74
2021/05/01 03:35:55;;;;;;;29.77;26.00;;;8.70;99.90;;;;;;5096175;28;20043;-74
2021/05/01 03:38:22;;;;;;;32.17;26.73;;;8.70;99.90;;;;;;5108061;28;20035;-74
2021/05/01 03:40:49;;;;;;;29.42;25.77;;;9.10;99.90;;;;;;5114577;28;20088;-74
2021/05/01 03:43:15;;;;;;;30.42;26.17;;;8.70;99.90;;;;;;5096724;28;20436;-73
2021/05/01 03:45:41;;;;;;;34.97;25.08;;;8.70;99.90;;;;;;5095670;28;20039;-75
2021/05/01 03:48:08;;;;;;;30.80;25.15;;;8.70;99.90;;;;;;5114419;28;20080;-75
2021/05/01 03:50:34;;;;;;;28.33;24.55;;;8.70;99.90;;;;;;5096406;28;20369;-74
2021/05/01 03:53:00;;;;;;;31.70;26.55;;;8.70;99.90;;;;;;5092506;28;20031;-74
2021/05/01 03:55:26;;;;;;;30.20;25.15;;;8.60;99.90;;;;;;5096033;28;20107;-74
2021/05/01 03:57:52;;;;;;;30.02;25.20;;;8.60;99.90;;;;;;5114069;28;20048;-72
2021/05/01 04:00:19;;;;;;;29.92;25.92;;;8.60;99.90;;;;;;5095752;28;20035;-74
2021/05/01 04:02:45;;;;;;;31.67;26.17;;;8.60;99.90;;;;;;5096189;28;20065;-74
2021/05/01 04:05:32;;;;;;;29.95;25.98;;;8.50;99.90;;;;;;5114042;28;20501;-74
2021/05/01 04:07:58;;;;;;;31.30;26.88;;;8.50;99.90;;;;;;5111829;28;20040;-74
2021/05/01 04:10:24;;;;;;;31.70;26.38;;;8.50;99.90;;;;;;5087712;28;20464;-73
2021/05/01 04:12:50;;;;;;;33.72;27.98;;;8.50;99.90;;;;;;5114191;28;20039;-74
2021/05/01 04:15:16;;;;;;;31.17;26.67;;;8.50;99.90;;;;;;5095805;28;20023;-73
2021/05/01 04:17:43;;;;;;;35.85;28.17;;;8.50;99.90;;;;;;5113551;28;20092;-74
2021/05/01 04:20:10;;;;;;;32.85;28.42;;;8.80;99.90;;;;;;5095102;28;20055;-73
2021/05/01 04:22:36;;;;;;;32.55;27.85;;;8.40;99.90;;;;;;5095710;28;20081;-74
2021/05/01 04:25:02;;;;;;;31.25;27.77;;;8.40;99.90;;;;;;5110312;28;20032;-73
2021/05/01 04:27:30;;;;;;;31.50;27.58;;;8.40;99.90;;;;;;5112844;28;20035;-73
2021/05/01 04:29:57;;;;;;;32.22;28.50;;;9.10;99.90;;;;;;5095533;28;20042;-74
2021/05/01 04:32:24;;;;;;;32.28;28.77;;;8.90;99.90;;;;;;5112740;28;20031;-74
2021/05/01 04:34:49;;;;;;;38.10;29.40;;;8.30;99.90;;;;;;5094727;28;20046;-74
2021/05/01 04:37:15;;;;;;;35.38;29.48;;;8.30;99.90;;;;;;5113243;28;20027;-74
2021/05/01 04:39:41;;;;;;;33.50;28.23;;;8.40;99.90;;;;;;5113343;28;20040;-74
2021/05/01 04:42:08;;;;;;;36.00;29.48;;;8.30;99.90;;;;;;5113373;28;20114;-74
2021/05/01 04:44:34;;;;;;;35.28;28.75;;;8.30;99.90;;;;;;5092817;28;20035;-74
2021/05/01 04:47:00;;;;;;;34.00;29.38;;;8.50;99.90;;;;;;5113044;28;20112;-74
2021/05/01 04:49:25;;;;;;;34.83;28.55;;;8.20;99.90;;;;;;5112998;28;20039;-74
2021/05/01 04:51:51;;;;;;;33.83;29.13;;;8.20;99.90;;;;;;5095080;28;20044;-76
2021/05/01 04:54:17;;;;;;;36.40;29.35;;;8.80;99.90;;;;;;5094858;28;20039;-77
2021/05/01 04:56:43;;;;;;;33.25;29.00;;;8.20;99.90;;;;;;5112582;28;20434;-77
2021/05/01 04:59:09;;;;;;;34.53;29.08;;;8.40;99.90;;;;;;5113019;28;20043;-77
2021/05/01 05:01:35;;;;;;;34.65;29.80;;;8.30;99.90;;;;;;5109826;28;20058;-77
2021/05/01 05:04:03;;;;;;;34.85;30.17;;;8.60;99.90;;;;;;5088308;28;20058;-77
2021/05/01 05:06:29;;;;;;;37.92;29.88;;;8.30;99.90;;;;;;5112384;28;20043;-76
2021/05/01 05:08:55;;;;;;;35.10;30.98;;;8.30;99.90;;;;;;5095224;28;20088;-76
2021/05/01 05:11:21;;;;;;;35.92;31.05;;;8.40;99.90;;;;;;5113053;28;20039;-76
2021/05/01 05:13:47;;;;;;;35.13;29.83;;;8.30;99.90;;;;;;5112757;28;20498;-76
2021/05/01 05:16:13;;;;;;;34.88;28.35;;;8.30;99.90;;;;;;5111490;28;20049;-76
2021/05/01 05:18:39;;;;;;;34.92;30.23;;;8.30;99.90;;;;;;5111077;28;20042;-76
2021/05/01 05:21:05;;;;;;;35.42;28.77;;;8.40;99.90;;;;;;5112974;28;20032;-76
2021/05/01 05:23:31;;;;;;;31.70;27.50;;;9.00;99.90;;;;;;5094694;28;20116;-77
2021/05/01 05:25:56;;;;;;;32.60;27.33;;;8.40;99.90;;;;;;5094601;28;20027;-76
2021/05/01 05:28:23;;;;;;;32.95;27.83;;;8.50;99.90;;;;;;5094992;28;20036;-76
2021/05/01 05:30:49;;;;;;;32.05;27.63;;;8.50;99.90;;;;;;5094654;28;20088;-76
2021/05/01 05:33:15;;;;;;;30.75;26.63;;;8.50;99.90;;;;;;5093146;28;20042;-76
2021/05/01 05:35:41;;;;;;;29.92;26.17;;;8.50;99.90;;;;;;5103262;28;20475;-76
2021/05/01 05:38:07;;;;;;;30.02;25.98;;;8.50;99.90;;;;;;5112737;28;20044;-76
2021/05/01 05:40:34;;;;;;;31.42;27.52;;;8.60;99.90;;;;;;5112891;28;20038;-77
2021/05/01 05:43:00;;;;;;;29.48;26.33;;;8.40;99.90;;;;;;5112074;28;20035;-76
2021/05/01 05:45:28;;;;;;;29.30;26.13;;;8.50;99.90;;;;;;5096087;28;20031;-76
2021/05/01 05:47:55;;;;;;;32.40;27.75;;;8.50;99.90;;;;;;5116889;28;20039;-77
2021/05/01 05:50:21;;;;;;;31.58;26.33;;;8.90;99.90;;;;;;5081049;28;20546;-77
2021/05/01 05:52:47;;;;;;;29.50;25.48;;;8.60;99.90;;;;;;5102148;28;20035;-76
2021/05/01 05:55:14;;;;;;;28.85;25.23;;;8.60;99.90;;;;;;5116204;28;20129;-76
2021/05/01 05:57:46;;;;;;;31.33;25.60;;;8.50;99.90;;;;;;5116578;28;20128;-76
2021/05/01 06:00:13;;;;;;;30.88;25.65;;;8.50;99.90;;;;;;5099140;28;20387;-77
2021/05/01 06:02:43;;;;;;;29.73;24.20;;;8.50;99.90;;;;;;5116586;28;20047;-76
2021/05/01 06:05:15;;;;;;;25.38;21.83;;;8.50;99.90;;;;;;5097718;28;20039;-74
2021/05/01 06:07:46;;;;;;;26.10;22.40;;;8.50;99.90;;;;;;5096299;28;20058;-78
2021/05/01 06:10:12;;;;;;;25.13;21.02;;;8.50;99.90;;;;;;5092810;28;20035;-77
2021/05/01 06:12:39;;;;;;;24.13;20.33;;;8.50;99.90;;;;;;5097722;28;20438;-79
2021/05/01 06:15:16;;;;;;;23.73;21.17;;;8.50;99.90;;;;;;5110089;28;20031;-79
2021/05/01 06:17:44;;;;;;;24.00;21.17;;;8.50;99.90;;;;;;5116474;28;20101;-79
2021/05/01 06:20:12;;;;;;;23.55;20.25;;;8.50;99.90;;;;;;5115862;28;20100;-78
2021/05/01 06:22:39;;;;;;;24.63;20.20;;;8.50;99.90;;;;;;5106003;28;20072;-79
2021/05/01 06:25:08;;;;;;;22.67;20.15;;;8.50;99.90;;;;;;5098842;28;20477;-76
2021/05/01 06:27:34;;;;;;;23.45;19.48;;;8.50;99.90;;;;;;5097491;28;20031;-77
2021/05/01 06:30:03;;;;;;;22.33;18.90;;;8.60;99.90;;;;;;5116441;27;21766;-78
2021/05/01 06:32:29;;;;;;;22.75;18.90;;;8.70;99.90;;;;;;5095733;28;20074;-78
2021/05/01 06:34:57;;;;;;;22.70;19.17;;;9.50;99.90;;;;;;5112846;28;20412;-77
2021/05/01 06:37:25;;;;;;;22.40;18.20;;;9.00;99.90;;;;;;5080084;28;20471;-77
2021/05/01 06:39:57;;;;;;;21.42;17.15;;;8.90;99.90;;;;;;5119762;27;20487;-77
2021/05/01 06:42:30;;;;;;;18.48;16.50;;;8.90;99.90;;;;;;5116063;28;20042;-77
2021/05/01 06:45:14;;;;;;;19.00;16.48;;;8.90;99.90;;;;;;5085615;27;20040;-77
2021/05/01 06:48:00;;;;;;;18.98;16.13;;;8.90;99.90;;;;;;5113840;28;20085;-82
2021/05/01 06:50:27;;;;;;;18.93;15.73;;;8.90;99.90;;;;;;5098242;28;20039;-75
2021/05/01 06:52:54;;;;;;;17.63;15.07;;;9.00;99.90;;;;;;5108906;28;20081;-76
2021/05/01 06:55:21;;;;;;;16.55;13.98;;;9.00;99.90;;;;;;5115777;28;20399;-76
2021/05/01 06:57:51;;;;;;;18.75;14.73;;;9.00;99.90;;;;;;5086301;28;20075;-76
2021/05/01 07:00:21;;;;;;;16.55;14.18;;;9.00;99.90;;;;;;5115702;28;20081;-75
2021/05/01 07:02:49;;;;;;;16.58;13.82;;;9.10;99.90;;;;;;5115701;28;20031;-76
2021/05/01 07:05:17;;;;;;;16.83;13.70;;;9.10;99.90;;;;;;5109584;28;20042;-76
2021/05/01 07:07:44;;;;;;;16.60;14.48;;;9.20;99.90;;;;;;5115503;28;20040;-76
2021/05/01 07:10:13;;;;;;;17.67;14.57;;;9.50;99.90;;;;;;5115415;28;20035;-76
2021/05/01 07:12:39;;;;;;;16.25;14.55;;;9.40;99.90;;;;;;5115416;28;20039;-76
2021/05/01 07:15:09;;;;;;;18.40;13.93;;;9.40;99.90;;;;;;5115308;28;20099;-76
2021/05/01 07:17:37;;;;;;;15.88;13.73;;;9.50;99.90;;;;;;5115311;28;20110;-76
2021/05/01 07:20:04;;;;;;;17.52;14.32;;;9.50;99.90;;;;;;5098002;28;20039;-76
2021/05/01 07:22:30;;;;;;;15.23;13.60;;;9.50;99.90;;;;;;5115160;28;20028;-76
2021/05/01 07:24:58;;;;;;;14.00;12.40;;;9.60;99.90;;;;;;5097729;28;20042;-76
2021/05/01 07:27:43;;;;;;;13.90;12.30;;;9.60;99.90;;;;;;5096911;28;20032;-76
2021/05/01 07:30:10;;;;;;;14.32;12.00;;;9.90;99.90;;;;;;5115090;28;20052;-76
2021/05/01 07:32:40;;;;;;;15.05;11.55;;;9.70;99.90;;;;;;5114700;28;20040;-76
2021/05/01 07:35:07;;;;;;;12.63;10.80;;;9.70;99.90;;;;;;5114802;28;20036;-76
2021/05/01 07:37:37;;;;;;;14.40;11.10;;;9.80;99.90;;;;;;5096406;28;20031;-76
2021/05/01 07:40:06;;;;;;;14.38;11.13;;;9.80;99.90;;;;;;5114352;28;20061;-76
2021/05/01 07:42:42;;;;;;;12.63;10.85;;;9.80;99.90;;;;;;5114434;28;20093;-76
2021/05/01 07:45:10;;;;;;;13.43;11.25;;;9.90;99.90;;;;;;5114716;28;20047;-75
2021/05/01 07:47:37;;;;;;;15.73;11.77;;;9.90;99.90;;;;;;5114348;28;20039;-76
2021/05/01 07:50:06;;;;;;;14.68;11.73;;;10.00;99.90;;;;;;5114270;28;20080;-73
2021/05/01 07:52:35;;;;;;;15.85;11.85;;;10.00;99.90;;;;;;5114675;28;20028;-73
2021/05/01 07:55:02;;;;;;;14.30;11.90;;;10.10;99.90;;;;;;5096425;28;20475;-73
2021/05/01 07:57:30;;;;;;;13.85;11.93;;;10.10;99.90;;;;;;5114419;28;20047;-76
2021/05/01 07:59:56;;;;;;;14.35;12.15;;;10.10;99.90;;;;;;5096449;28;20114;-76
2021/05/01 08:02:27;;;;;;;14.98;11.82;;;10.20;99.90;;;;;;5114501;28;20031;-72
2021/05/01 08:04:56;;;;;;;16.85;11.98;;;10.50;99.90;;;;;;5115166;28;20036;-73
2021/05/01 08:07:22;;;;;;;15.90;12.13;;;10.30;99.90;;;;;;5079593;28;20032;-73
2021/05/01 08:09:47;;;;;;;16.08;12.25;;;10.30;99.90;;;;;;5113029;28;20046;-73
2021/05/01 08:12:13;;;;;;;15.45;12.65;;;10.20;99.90;;;;;;5097223;28;20403;-73
2021/05/01 08:14:45;;;;;;;17.75;13.15;;;10.30;99.90;;;;;;5113658;28;20039;-73
2021/05/01 08:17:11;;;;;;;13.82;11.80;;;10.40;99.90;;;;;;5082041;28;20041;-73
2021/05/01 08:19:36;;;;;;;16.10;13.52;;;10.40;99.90;;;;;;5114010;28;20046;-74
2021/05/01 08:22:02;;;;;;;14.02;12.07;;;10.50;99.90;;;;;;5095839;28;20036;-73
2021/05/01 08:24:28;;;;;;;17.02;13.00;;;10.50;99.90;;;;;;5113996;28;20032;-73
2021/05/01 08:26:54;;;;;;;17.55;13.30;;;10.60;99.90;;;;;;5113577;28;20086;-73
2021/05/01 08:29:20;;;;;;;14.15;12.05;;;10.60;99.90;;;;;;5096294;28;20036;-76
2021/05/01 08:31:46;;;;;;;16.85;13.35;;;10.60;99.90;;;;;;5113792;28;20046;-76
2021/05/01 08:34:12;;;;;;;19.45;14.40;;;11.20;99.90;;;;;;5078135;28;20103;-76
2021/05/01 08:36:38;;;;;;;16.17;13.68;;;11.00;99.90;;;;;;5095979;28;20034;-76
2021/05/01 08:39:04;;;;;;;16.85;12.98;;;11.10;99.90;;;;;;5113673;28;20031;-76
2021/05/01 08:41:30;;;;;;;17.75;14.27;;;10.90;99.90;;;;;;5113451;28;20344;-76
2021/05/01 08:44:04;;;;;;;16.42;14.00;;;10.90;99.90;;;;;;5113693;28;20045;-76
2021/05/01 08:46:30;;;;;;;16.75;13.25;;;11.00;99.90;;;;;;5113232;28;20363;-76
2021/05/01 08:48:55;;;;;;;17.85;13.65;;;10.90;99.90;;;;;;5095377;28;20028;-76
2021/05/01 08:51:21;;;;;;;17.90;13.75;;;10.80;99.90;;;;;;5113014;28;20459;-76
2021/05/01 08:53:47;;;;;;;17.15;13.73;;;10.70;99.90;;;;;;5095439;28;20047;-76
2021/05/01 08:56:13;;;;;;;19.08;14.57;;;10.70;99.90;;;;;;5098602;28;20059;-73
2021/05/01 08:58:39;;;;;;;17.95;14.27;;;10.50;99.90;;;;;;5107298;28;20039;-73
2021/05/01 09:01:05;;;;;;;20.13;15.27;;;10.40;99.90;;;;;;5081434;28;20131;-73
2021/05/01 09:03:30;;;;;;;18.42;15.90;;;10.30;99.90;;;;;;5112822;28;20039;-73
2021/05/01 09:05:58;;;;;;;21.83;16.25;;;10.20;99.90;;;;;;5112952;28;20387;-73
2021/05/01 09:08:25;;;;;;;21.95;17.50;;;10.10;99.90;;;;;;5113175;28;20035;-73
2021/05/01 09:10:54;;;;;;;23.98;17.08;;;10.40;99.90;;;;;;5112993;28;20043;-73
2021/05/01 09:13:27;;;;;;;22.92;17.83;;;10.10;99.90;;;;;;5112929;28;20039;-73
2021/05/01 09:16:06;;;;;;;23.38;18.55;;;10.00;99.90;;;;;;5113202;28;20057;-72
2021/05/01 09:18:57;;;;;;;20.48;17.33;;;10.00;99.90;;;;;;5113445;28;20057;-73
2021/05/01 09:21:27;;;;;;;21.38;17.77;;;10.00;99.90;;;;;;5112716;28;20503;-72
2021/05/01 09:23:54;;;;;;;24.42;19.52;;;10.00;99.90;;;;;;5112853;28;20047;-73
2021/05/01 09:26:36;;;;;;;23.70;17.67;;;10.00;99.90;;;;;;5102782;28;20387;-73
2021/05/01 09:29:03;;;;;;;21.02;18.23;;;10.00;99.90;;;;;;5112910;28;20027;-72
2021/05/01 09:31:41;;;;;;;27.67;20.38;;;10.60;99.90;;;;;;5112640;28;20036;-72
2021/05/01 09:34:11;;;;;;;24.45;18.98;;;10.00;99.90;;;;;;5112749;28;20051;-72
2021/05/01 09:36:38;;;;;;;23.20;18.70;;;9.90;99.90;;;;;;5094669;28;20035;-73
2021/05/01 09:39:16;;;;;;;22.90;18.20;;;9.90;99.90;;;;;;5112732;28;20085;-73
2021/05/01 09:41:44;;;;;;;22.38;17.45;;;9.90;99.90;;;;;;5112276;28;20042;-72
2021/05/01 09:44:12;;;;;;;21.90;17.77;;;10.20;99.90;;;;;;5094171;28;20089;-72
2021/05/01 09:46:42;;;;;;;24.17;17.63;;;9.90;99.90;;;;;;5101007;28;20115;-72
2021/05/01 09:49:27;;;;;;;21.75;17.38;;;10.10;99.90;;;;;;5112578;28;20036;-72
2021/05/01 09:52:19;;;;;;;20.70;17.23;;;9.90;99.90;;;;;;5112913;28;20066;-72
2021/05/01 09:54:46;;;;;;;19.92;16.17;;;9.90;99.90;;;;;;5090537;28;20044;-73
2021/05/01 09:57:17;;;;;;;19.27;15.98;;;9.90;99.90;;;;;;5077959;28;20097;-75
2021/05/01 09:59:48;;;;;;;21.90;16.30;;;9.90;99.90;;;;;;5094298;28;20466;-75
2021/05/01 10:02:23;;;;;;;20.17;15.90;;;9.90;99.90;;;;;;5105599;28;20483;-75
2021/05/01 10:05:16;;;;;;;19.27;15.75;;;9.90;99.90;;;;;;5112593;28;20072;-75
2021/05/01 10:07:46;;;;;;;17.95;14.68;;;10.00;99.90;;;;;;5112910;28;20384;-75
2021/05/01 10:10:12;;;;;;;18.38;15.63;;;10.10;99.90;;;;;;5112309;28;20070;-75
2021/05/01 10:12:41;;;;;;;17.13;14.38;;;10.00;99.90;;;;;;5112662;28;20031;-76
2021/05/01 10:15:24;;;;;;;18.77;15.02;;;10.00;99.90;;;;;;5112381;28;20355;-76
2021/05/01 10:17:50;;;;;;;17.50;14.55;;;10.10;99.90;;;;;;5096164;28;20032;-75
2021/05/01 10:20:19;;;;;;;19.38;15.40;;;10.10;99.90;;;;;;5112346;28;20476;-75
2021/05/01 10:23:01;;;;;;;21.45;14.85;;;10.20;99.90;;;;;;5112362;28;20113;-75
2021/05/01 10:25:31;;;;;;;15.30;12.73;;;10.30;99.90;;;;;;5094200;28;20081;-76
2021/05/01 10:28:03;;;;;;;16.38;13.73;;;10.90;99.90;;;;;;5094590;28;20032;-76
2021/05/01 10:30:40;;;;;;;17.70;12.07;;;10.50;99.90;;;;;;5112420;28;20142;-75
2021/05/01 10:33:23;;;;;;;15.80;12.18;;;10.60;99.90;;;;;;5114969;28;20511;-75
2021/05/01 10:36:08;;;;;;;16.08;13.23;;;10.70;99.90;;;;;;5115666;28;20048;-76
2021/05/01 10:38:35;;;;;;;17.98;12.93;;;10.80;99.90;;;;;;5115869;28;20067;-76
2021/05/01 10:41:13;;;;;;;15.88;12.90;;;10.80;99.90;;;;;;5115731;28;20039;-76
2021/05/01 10:43:46;;;;;;;15.90;13.02;;;10.90;99.90;;;;;;5097595;28;20475;-76
2021/05/01 10:46:13;;;;;;;15.98;12.15;;;11.00;99.90;;;;;;5115758;28;20034;-76
2021/05/01 10:48:49;;;;;;;18.38;12.73;;;11.00;99.90;;;;;;5107616;28;20502;-76
2021/05/01 10:51:37;;;;;;;15.65;12.45;;;11.30;99.90;;;;;;5115498;28;20047;-76
2021/05/01 10:54:12;;;;;;;14.35;11.43;;;11.00;99.90;;;;;;5050052;28;20055;-76
2021/05/01 10:56:44;;;;;;;18.23;12.43;;;11.00;99.90;;;;;;5116034;28;20080;-76
2021/05/01 10:59:26;;;;;;;18.70;11.23;;;11.00;99.90;;;;;;5097048;28;20467;-76
2021/05/01 11:01:54;;;;;;;13.25;11.77;;;11.10;99.90;;;;;;5115437;28;20131;-75
2021/05/01 11:04:31;;;;;;;18.00;10.13;;;11.30;99.90;;;;;;5097826;28;20031;-76
2021/05/01 11:07:11;;;;;;;14.65;11.60;;;11.20;99.90;;;;;;5097435;28;20537;-76
2021/05/01 11:09:46;;;;;;;13.73;11.15;;;11.30;99.90;;;;;;5115553;28;20070;-76
2021/05/01 11:12:13;;;;;;;14.90;12.07;;;11.40;99.90;;;;;;5102325;28;20044;-76
2021/05/01 11:14:46;;;;;;;14.18;8.70;;;11.70;99.90;;;;;;5097843;28;20032;-76
2021/05/01 11:17:57;;;;;;;11.23;6.90;;;11.30;99.90;;;;;;5114534;28;20065;-76
2021/05/01 11:20:29;;;;;;;9.27;7.32;;;11.00;99.60;;;;;;5090806;28;20039;-76
2021/05/01 11:22:55;;;;;;;8.38;6.53;;;10.80;99.70;;;;;;5097190;28;20044;-75
2021/05/01 11:25:22;;;;;;;8.27;6.25;;;10.70;99.90;;;;;;5063531;28;20134;-76
2021/05/01 11:27:50;;;;;;;9.65;7.55;;;10.60;99.80;;;;;;5115074;28;20036;-76
2021/05/01 11:30:21;;;;;;;10.85;7.75;;;10.40;99.10;;;;;;5115104;28;20040;-75
2021/05/01 11:32:48;;;;;;;8.85;7.30;;;10.30;98.90;;;;;;5114888;28;20035;-76
2021/05/01 11:35:16;;;;;;;8.65;7.75;;;10.30;98.70;;;;;;5114510;28;20108;-76
2021/05/01 11:37:48;;;;;;;9.80;8.20;;;10.30;98.90;;;;;;5114758;28;20043;-76
2021/05/01 11:40:15;;;;;;;11.73;7.90;;;10.30;99.20;;;;;;5114792;28;20039;-75
2021/05/01 11:42:42;;;;;;;11.23;8.23;;;10.40;99.30;;;;;;5096348;28;20067;-76
2021/05/01 11:45:31;;;;;;;9.10;8.20;;;10.30;98.90;;;;;;5114801;28;20042;-75
2021/05/01 11:48:02;;;;;;;10.63;8.25;;;10.20;97.50;;;;;;5095027;28;20491;-76
2021/05/01 11:50:29;;;;;;;10.27;8.25;;;10.20;98.90;;;;;;5114836;28;20039;-76
2021/05/01 11:53:25;;;;;;;12.32;8.75;;;10.30;99.50;;;;;;5100329;28;20524;-76
2021/05/01 11:55:57;;;;;;;10.93;9.25;;;10.20;99.90;;;;;;5114637;28;20076;-76
2021/05/01 11:58:34;;;;;;;12.40;9.60;;;10.20;99.90;;;;;;5114230;28;20082;-75
2021/05/01 12:01:24;;;;;;;13.23;9.32;;;10.30;99.90;;;;;;5114280;28;20047;-76
2021/05/01 12:04:03;;;;;;;12.27;9.02;;;10.30;99.90;;;;;;5102616;28;20031;-76
2021/05/01 12:06:29;;;;;;;10.43;9.15;;;10.30;99.90;;;;;;5114102;28;20487;-76
2021/05/01 12:09:01;;;;;;;13.00;9.50;;;10.30;99.90;;;;;;5096291;28;20036;-76
2021/05/01 12:11:30;;;;;;;12.68;10.38;;;10.20;99.90;;;;;;5114172;28;20066;-75
2021/05/01 12:14:01;;;;;;;12.75;10.07;;;10.20;99.90;;;;;;5096156;28;20031;-75
2021/05/01 12:16:27;;;;;;;13.95;10.20;;;10.30;99.90;;;;;;5113720;28;20569;-76
2021/05/01 12:18:55;;;;;;;12.40;10.05;;;10.40;99.90;;;;;;5113774;28;20043;-76
2021/05/01 12:21:23;;;;;;;11.38;9.60;;;10.40;99.90;;;;;;5114081;28;20275;-73
2021/05/01 12:23:51;;;;;;;14.63;9.75;;;10.50;99.90;;;;;;5095596;28;20088;-73
2021/05/01 12:26:36;;;;;;;15.18;10.50;;;10.60;99.90;;;;;;5114035;28;20106;-73
2021/05/01 12:29:33;;;;;;;14.03;10.43;;;10.70;99.90;;;;;;5095550;28;20134;-73
2021/05/01 12:32:07;;;;;;;12.60;10.13;;;10.80;99.90;;;;;;5097622;28;20122;-73
2021/05/01 12:34:53;;;;;;;15.73;9.60;;;10.60;99.90;;;;;;5096972;28;20038;-73
2021/05/01 12:37:21;;;;;;;13.00;10.43;;;10.60;99.90;;;;;;5113907;28;20039;-73
2021/05/01 12:39:48;;;;;;;12.63;10.63;;;10.60;99.90;;;;;;5099862;28;20043;-73
2021/05/01 12:42:28;;;;;;;14.25;11.07;;;10.70;99.90;;;;;;5113738;28;20043;-73
2021/05/01 12:44:53;;;;;;;13.48;10.82;;;10.70;99.90;;;;;;5099853;28;20039;-73